Main page
METAR-TAF:

METAR-TAF

Airports :

Guernsey Airport

Guernsey,

latitude: 49-26N, longitude: 002-36W, elevation: 102 m

Current weather observation

The report was made 34 minutes ago, at 23:50 UTC
Wind 16 kt from the South/Southwest
Temperature 9°C
Humidity 87%
Pressure 1005 hPa
Visibility 10 km or more
Few clouds at a height of 1200 ft

METAR: EGJB 182350Z 21016KT 9999 FEW012 09/07 Q1005

Time: 00:24 (00:24 UTC)

Forecast

The report was made 1 hour and 25 minutes ago, at 22:59 UTC
Forecast valid from 19 at 00 UTC to 19 at 09 UTC
Wind 14 kt from the South/Southwest
Visibility 10 km or more
Scattered clouds at a height of 1500 ft
Probability 40% :
Temporary
from 19 at 00 UTC to 19 at 09 UTC
Wind 28 kt from the South/Southwest with gusts up to 40 kt
Visibility: 5000 m
Broken clouds at a height of 1500 ft, Cumulonimbus.
heavy rain showers

TAF: EGJB 182259Z 1900/1909 21014KT 9999 SCT015 PROB40 TEMPO 1900/1909 20028G40KT 5000 +SHRA BKN015CB

Weather observations and forecasts of more than 4000 airports (METAR and TAF reports).

The available stations are represented by yellow and red dots on the map.

Hover mouse over dot to see the name of the station.

Then click to see weather observations and forecasts.

To change the map : click on the green buttons with a black cross to zoom in, on the green button with a dash to zoom out, or on the green arrows for adjacent maps.


METAR-TAF: